createdAt,value
2019-06-27T00:01:42.113Z,102006.58
2019-06-27T00:04:12.598Z,102009.33
2019-06-27T00:06:43.261Z,102010.34
2019-06-27T00:09:13.858Z,102008.59
2019-06-27T00:11:44.366Z,102003.14
2019-06-27T00:14:14.768Z,101997.22
2019-06-27T00:16:45.328Z,102001.50
2019-06-27T00:19:15.897Z,102005.48
2019-06-27T00:21:46.399Z,102001.05
2019-06-27T00:24:16.846Z,102000.98
2019-06-27T00:26:56.466Z,101997.59
2019-06-27T00:29:19.512Z,101997.56
2019-06-27T00:31:50.052Z,102000.48
2019-06-27T00:34:20.552Z,101998.35
2019-06-27T00:36:51.098Z,101992.70
2019-06-27T00:39:21.592Z,101986.19
2019-06-27T00:41:52.298Z,101992.27
2019-06-27T00:44:22.763Z,102000.16
2019-06-27T00:46:53.283Z,101998.63
2019-06-27T00:49:23.797Z,101993.27
2019-06-27T00:51:54.295Z,101994.40
2019-06-27T00:54:24.803Z,101996.02
2019-06-27T00:56:55.313Z,101992.91
2019-06-27T00:59:25.872Z,101998.94
2019-06-27T01:01:56.412Z,102001.77
2019-06-27T01:04:26.874Z,102010.21
2019-06-27T01:06:57.347Z,102014.52
2019-06-27T01:09:27.886Z,102014.03
2019-06-27T01:11:58.357Z,102019.59
2019-06-27T01:14:28.833Z,102015.89
2019-06-27T01:16:59.397Z,102013.97
2019-06-27T01:19:29.910Z,102020.15
2019-06-27T01:22:00.418Z,102014.20
2019-06-27T01:24:30.893Z,102016.98
2019-06-27T01:27:01.401Z,102022.69
2019-06-27T01:29:31.994Z,102022.69
2019-06-27T01:32:02.509Z,102028.28
2019-06-27T01:34:33.004Z,102024.41
2019-06-27T01:37:03.478Z,102024.77
2019-06-27T01:39:34.005Z,102029.38
2019-06-27T01:42:04.495Z,102026.80
2019-06-27T01:44:43.889Z,102027.66
2019-06-27T01:47:14.418Z,102024.41
2019-06-27T01:49:44.903Z,102025.63
2019-06-27T01:52:15.421Z,102030.70
2019-06-27T01:54:45.849Z,102024.30
2019-06-27T01:57:17.644Z,102017.65
2019-06-27T01:59:48.208Z,102025.73
2019-06-27T02:02:18.703Z,102018.86
2019-06-27T02:04:49.248Z,102018.94
2019-06-27T02:07:19.761Z,102022.84
2019-06-27T02:09:50.319Z,102023.82
2019-06-27T02:12:20.960Z,102021.43
2019-06-27T02:14:51.505Z,102020.84
2019-06-27T02:17:22.010Z,102027.95
2019-06-27T02:19:52.545Z,102026.27
2019-06-27T02:22:23.048Z,102019.97
2019-06-27T02:24:53.533Z,102021.80
2019-06-27T02:27:23.995Z,102014.31
2019-06-27T02:29:54.526Z,102017.09
2019-06-27T02:32:24.996Z,102016.63
2019-06-27T02:34:55.493Z,102013.11
2019-06-27T02:37:25.985Z,102010.45
2019-06-27T02:39:56.481Z,102010.83
2019-06-27T02:42:26.980Z,102019.27
2019-06-27T02:44:57.541Z,102012.16
2019-06-27T02:47:28.058Z,102021.81
2019-06-27T02:49:58.565Z,102013.94
2019-06-27T02:52:29.085Z,102006.72
2019-06-27T02:54:59.516Z,102008.06
2019-06-27T02:57:30.022Z,102004.55
2019-06-27T03:00:00.556Z,102009.01
2019-06-27T03:02:31.095Z,101997.30
2019-06-27T03:05:01.573Z,102006.70
2019-06-27T03:07:32.167Z,102004.06
2019-06-27T03:10:02.763Z,102003.20
2019-06-27T03:12:33.253Z,102006.57
2019-06-27T03:15:03.797Z,102008.14
2019-06-27T03:17:34.360Z,102009.83
2019-06-27T03:20:06.285Z,102010.69
2019-06-27T03:22:36.847Z,102010.69
2019-06-27T03:25:07.644Z,102014.20
2019-06-27T03:27:38.139Z,102012.48
2019-06-27T03:30:09.173Z,102009.36
2019-06-27T03:32:39.716Z,102017.06
2019-06-27T03:35:10.236Z,102017.17
2019-06-27T03:37:40.806Z,102011.39
2019-06-27T03:40:12.218Z,102010.66
2019-06-27T03:42:42.707Z,102013.42
2019-06-27T03:45:15.768Z,102014.64
2019-06-27T03:47:45.549Z,102019.25
2019-06-27T03:50:17.037Z,102014.16
2019-06-27T03:52:47.661Z,102015.46
2019-06-27T03:55:18.205Z,102001.08
2019-06-27T03:57:48.725Z,102016.78
2019-06-27T04:00:29.733Z,102008.70
2019-06-27T04:03:00.290Z,102019.56
2019-06-27T04:05:30.842Z,102006.85
2019-06-27T04:08:01.557Z,102020.03
2019-06-27T04:13:01.318Z,102025.70
2019-06-27T04:15:31.874Z,102019.44
2019-06-27T04:18:02.393Z,102022.30
2019-06-27T04:20:32.944Z,102019.05
2019-06-27T04:23:03.482Z,102020.33
2019-06-27T04:25:34.018Z,102026.87
2019-06-27T04:28:04.549Z,102026.42
2019-06-27T04:30:35.141Z,102025.55
2019-06-27T04:33:05.657Z,102036.43
2019-06-27T04:35:36.167Z,102038.97
2019-06-27T04:38:06.778Z,102027.25
2019-06-27T04:40:37.414Z,102032.81
2019-06-27T04:43:07.899Z,102029.45
2019-06-27T04:45:38.427Z,102034.38
2019-06-27T04:48:08.953Z,102033.44
2019-06-27T04:50:39.485Z,102034.27
2019-06-27T04:53:10.053Z,102036.21
2019-06-27T04:55:40.587Z,102023.88
2019-06-27T04:58:11.094Z,102034.86
2019-06-27T05:00:41.659Z,102040.88
2019-06-27T05:03:12.158Z,102039.44
2019-06-27T05:05:42.653Z,102030.15
2019-06-27T05:08:14.943Z,102030.88
2019-06-27T05:10:45.693Z,102042.38
2019-06-27T05:13:17.174Z,102034.22
2019-06-27T05:15:47.687Z,102041.09
2019-06-27T05:18:18.213Z,102035.92
2019-06-27T05:20:50.795Z,102040.41
2019-06-27T05:23:21.389Z,102037.75
2019-06-27T05:25:52.887Z,102037.12
2019-06-27T05:28:24.515Z,102048.79
2019-06-27T05:30:55.110Z,102041.33
2019-06-27T05:33:25.637Z,102043.94
2019-06-27T05:35:56.155Z,102047.11
2019-06-27T05:38:26.691Z,102058.50
2019-06-27T05:40:57.194Z,102047.75
2019-06-27T05:43:27.688Z,102056.41
2019-06-27T05:45:58.311Z,102058.11
2019-06-27T05:48:28.811Z,102057.67
2019-06-27T05:50:59.404Z,102052.27
2019-06-27T05:53:29.970Z,102051.83
2019-06-27T05:56:00.479Z,102053.96
2019-06-27T05:58:30.978Z,102050.60
2019-06-27T06:01:01.650Z,102059.51
2019-06-27T06:03:32.236Z,102050.51
2019-06-27T06:06:02.759Z,102055.14
2019-06-27T06:08:33.229Z,102063.83
2019-06-27T06:11:03.752Z,102056.72
2019-06-27T06:13:34.271Z,102060.47
2019-06-27T06:16:04.805Z,102058.16
2019-06-27T06:18:35.415Z,102054.47
2019-06-27T06:21:06.048Z,102054.34
2019-06-27T06:23:36.528Z,102057.33
2019-06-27T06:26:07.017Z,102058.81
2019-06-27T06:28:37.631Z,102050.66
2019-06-27T06:31:08.178Z,102058.23
2019-06-27T06:33:38.685Z,102059.17
2019-06-27T06:36:09.240Z,102066.45
2019-06-27T06:38:39.777Z,102055.17
2019-06-27T06:41:10.273Z,102057.26
2019-06-27T06:43:40.795Z,102066.88
2019-06-27T06:46:11.338Z,102055.45
2019-06-27T06:48:41.835Z,102060.27
2019-06-27T06:51:12.443Z,102069.25
2019-06-27T06:53:42.953Z,102058.15
2019-06-27T06:56:13.480Z,102061.04
2019-06-27T06:58:44.028Z,102073.50
2019-06-27T07:01:14.537Z,102071.38
2019-06-27T07:03:45.139Z,102071.56
2019-06-27T07:06:15.642Z,102073.08
2019-06-27T07:08:46.300Z,102071.53
2019-06-27T07:11:16.867Z,102082.66
2019-06-27T07:13:47.369Z,102082.56
2019-06-27T07:16:17.881Z,102080.80
2019-06-27T07:18:48.406Z,102079.46
2019-06-27T07:21:18.945Z,102093.30
2019-06-27T07:23:49.691Z,102083.73
2019-06-27T07:26:22.417Z,102096.52
2019-06-27T07:28:52.371Z,102093.41
2019-06-27T07:31:22.982Z,102095.23
2019-06-27T07:33:53.487Z,102098.56
2019-06-27T07:36:23.900Z,102096.04
2019-06-27T07:38:54.420Z,102099.62
2019-06-27T07:41:24.939Z,102094.78
2019-06-27T07:43:55.458Z,102095.45
2019-06-27T07:46:26.194Z,102099.54
2019-06-27T07:48:56.708Z,102102.03
2019-06-27T07:51:27.505Z,102098.52
2019-06-27T07:53:58.129Z,102093.73
2019-06-27T07:56:28.642Z,102095.50
2019-06-27T07:58:59.205Z,102088.41
2019-06-27T08:01:35.385Z,102102.44
2019-06-27T08:04:02.088Z,102094.55
2019-06-27T08:06:32.603Z,102102.98
2019-06-27T08:09:03.139Z,102101.14
2019-06-27T08:11:33.661Z,102101.09
2019-06-27T08:14:04.203Z,102100.36
2019-06-27T08:16:34.738Z,102108.75
2019-06-27T08:19:05.292Z,102108.53
2019-06-27T08:21:35.795Z,102112.20
2019-06-27T08:24:06.646Z,102105.66
2019-06-27T08:26:37.055Z,102108.67
2019-06-27T08:29:07.581Z,102115.52
2019-06-27T08:31:51.009Z,102109.50
2019-06-27T08:34:10.357Z,102103.84
2019-06-27T08:36:40.973Z,102116.26
2019-06-27T08:39:11.523Z,102112.95
2019-06-27T08:41:42.015Z,102114.23
2019-06-27T08:44:12.517Z,102116.55
2019-06-27T08:46:43.127Z,102121.45
2019-06-27T08:49:13.663Z,102124.87
2019-06-27T08:51:44.191Z,102124.06
2019-06-27T08:54:14.734Z,102129.47
2019-06-27T08:56:45.342Z,102133.20
2019-06-27T08:59:15.913Z,102127.92
2019-06-27T09:01:46.430Z,102124.77
2019-06-27T09:04:17.063Z,102129.41
2019-06-27T09:06:47.660Z,102126.03
2019-06-27T09:09:18.494Z,102127.39
2019-06-27T09:11:49.202Z,102130.20
2019-06-27T09:14:19.910Z,102126.39
2019-06-27T09:16:50.665Z,102135.42
2019-06-27T09:19:21.520Z,102127.30
2019-06-27T09:21:52.378Z,102120.81
2019-06-27T09:24:23.748Z,102129.60
2019-06-27T09:26:54.306Z,102130.28
2019-06-27T09:29:24.832Z,102129.34
2019-06-27T09:31:55.488Z,102118.66
2019-06-27T09:34:26.098Z,102114.30
2019-06-27T09:36:56.698Z,102112.33
2019-06-27T09:39:27.351Z,102113.38
2019-06-27T09:41:57.898Z,102114.79
2019-06-27T09:44:28.631Z,102113.88
2019-06-27T09:46:59.334Z,102111.50
2019-06-27T09:49:29.834Z,102100.78
2019-06-27T09:52:00.378Z,102106.40
2019-06-27T09:54:30.989Z,102108.63
2019-06-27T09:57:01.596Z,102112.32
2019-06-27T09:59:32.175Z,102112.83
2019-06-27T10:02:02.749Z,102114.44
2019-06-27T10:04:33.301Z,102115.20
2019-06-27T10:07:04.031Z,102113.39
2019-06-27T10:09:34.684Z,102105.84
2019-06-27T10:12:05.282Z,102110.57
2019-06-27T10:14:35.881Z,102104.86
2019-06-27T10:17:06.451Z,102116.49
2019-06-27T10:19:37.311Z,102120.50
2019-06-27T10:22:07.906Z,102115.41
2019-06-27T10:24:38.511Z,102112.44
2019-06-27T10:27:09.128Z,102112.10
2019-06-27T10:29:39.707Z,102117.39
2019-06-27T10:32:10.318Z,102108.34
2019-06-27T10:34:40.838Z,102111.19
2019-06-27T10:37:11.431Z,102109.78
2019-06-27T10:39:42.525Z,102114.42
2019-06-27T10:42:13.233Z,102111.05
2019-06-27T10:44:43.829Z,102112.39
2019-06-27T10:47:14.434Z,102117.06
2019-06-27T10:49:45.035Z,102104.22
2019-06-27T10:52:15.608Z,102105.87
2019-06-27T10:54:46.354Z,102113.03
2019-06-27T10:57:19.052Z,102119.33
2019-06-27T10:59:49.357Z,102109.73
2019-06-27T11:02:19.976Z,102111.24
2019-06-27T11:04:50.557Z,102107.91
2019-06-27T11:07:21.164Z,102107.14
2019-06-27T11:09:51.792Z,102109.22
2019-06-27T11:12:22.788Z,102109.91
2019-06-27T11:14:59.025Z,102108.78
2019-06-27T11:17:25.806Z,102110.14
2019-06-27T11:19:56.370Z,102106.80
2019-06-27T11:22:26.977Z,102110.88
2019-06-27T11:24:57.706Z,102100.53
2019-06-27T11:27:28.240Z,102109.31
2019-06-27T11:29:58.744Z,102104.42
2019-06-27T11:32:29.273Z,102112.52
2019-06-27T11:34:59.835Z,102105.95
2019-06-27T11:37:30.315Z,102108.33
2019-06-27T11:40:00.857Z,102109.94
2019-06-27T11:42:31.395Z,102106.00
2019-06-27T11:45:01.963Z,102100.53
2019-06-27T11:47:34.575Z,102090.36
2019-06-27T11:50:04.804Z,102096.03
2019-06-27T11:52:35.279Z,102094.35
2019-06-27T11:55:05.880Z,102091.21
2019-06-27T11:57:36.461Z,102092.45
2019-06-27T12:00:07.440Z,102088.91
2019-06-27T12:02:37.971Z,102091.22
2019-06-27T12:05:08.691Z,102089.44
2019-06-27T12:07:39.259Z,102080.13
2019-06-27T12:10:10.201Z,102080.51
2019-06-27T12:12:40.844Z,102079.27
2019-06-27T12:15:12.051Z,102086.04
2019-06-27T12:17:42.581Z,102082.95
2019-06-27T12:20:13.836Z,102082.84
2019-06-27T12:22:44.399Z,102081.88
2019-06-27T12:25:15.211Z,102081.35
2019-06-27T12:27:45.730Z,102076.93
2019-06-27T12:30:16.481Z,102075.25
2019-06-27T12:32:52.508Z,102078.64
2019-06-27T12:35:19.775Z,102076.77
2019-06-27T12:37:50.304Z,102076.66
2019-06-27T12:40:21.090Z,102075.55
2019-06-27T12:42:51.672Z,102074.05
2019-06-27T12:45:22.397Z,102077.78
2019-06-27T12:47:52.966Z,102072.49
2019-06-27T12:50:23.476Z,102073.69
2019-06-27T12:52:54.093Z,102072.61
2019-06-27T12:55:24.610Z,102071.92
2019-06-27T12:57:55.577Z,102065.69
2019-06-27T13:00:26.164Z,102069.12
2019-06-27T13:02:56.740Z,102069.19
2019-06-27T13:05:27.242Z,102065.78
2019-06-27T13:07:57.856Z,102069.92
2019-06-27T13:10:38.116Z,102067.45
2019-06-27T13:13:08.716Z,102063.69
2019-06-27T13:15:39.212Z,102066.91
2019-06-27T13:18:09.772Z,102070.85
2019-06-27T13:20:56.677Z,102061.90
2019-06-27T13:23:12.614Z,102057.49
2019-06-27T13:25:43.160Z,102070.36
2019-06-27T13:28:13.800Z,102063.21
2019-06-27T13:30:44.298Z,102065.83
2019-06-27T13:33:14.849Z,102066.74
2019-06-27T13:35:48.983Z,102072.55
2019-06-27T13:38:17.613Z,102068.67
2019-06-27T13:40:48.082Z,102073.89
2019-06-27T13:43:18.654Z,102074.28
2019-06-27T13:45:49.250Z,102080.78
2019-06-27T13:48:19.790Z,102071.21
2019-06-27T13:50:50.306Z,102072.43
2019-06-27T13:53:20.977Z,102062.39
2019-06-27T13:55:51.537Z,102068.85
2019-06-27T13:58:22.123Z,102070.21
2019-06-27T14:00:52.669Z,102069.99
2019-06-27T14:03:23.226Z,102062.44
2019-06-27T14:05:53.862Z,102060.76
2019-06-27T14:08:26.345Z,102061.84
2019-06-27T14:10:56.595Z,102064.51
2019-06-27T14:13:27.096Z,102055.13
2019-06-27T14:15:57.657Z,102048.88
2019-06-27T14:18:28.142Z,102052.31
2019-06-27T14:20:58.681Z,102056.35
2019-06-27T14:23:29.428Z,102051.18
2019-06-27T14:26:00.016Z,102051.89
2019-06-27T14:28:30.557Z,102054.48
2019-06-27T14:31:01.145Z,102049.12
2019-06-27T14:33:31.657Z,102058.89
2019-06-27T14:36:02.302Z,102053.63
2019-06-27T14:38:52.100Z,102054.70
2019-06-27T14:41:22.754Z,102046.41
2019-06-27T14:43:53.382Z,102060.80
2019-06-27T14:46:23.940Z,102057.80
2019-06-27T14:48:56.792Z,102058.95
2019-06-27T14:51:26.842Z,102046.83
2019-06-27T14:53:57.349Z,102053.73
2019-06-27T14:56:28.376Z,102052.25
2019-06-27T14:58:59.019Z,102053.98
2019-06-27T15:01:29.567Z,102046.09
2019-06-27T15:04:00.271Z,102045.27
2019-06-27T15:06:31.748Z,102055.36
2019-06-27T15:09:02.799Z,102044.27
2019-06-27T15:11:33.531Z,102050.59
2019-06-27T15:14:04.175Z,102041.14
2019-06-27T15:16:35.700Z,102043.30
2019-06-27T15:19:06.250Z,102039.67
2019-06-27T15:21:36.903Z,102032.41
2019-06-27T15:24:07.474Z,102044.27
2019-06-27T15:26:38.087Z,102046.23
2019-06-27T15:29:08.691Z,102038.95
2019-06-27T15:31:39.245Z,102036.69
2019-06-27T15:34:09.892Z,102033.78
2019-06-27T15:36:40.466Z,102045.61
2019-06-27T15:39:12.133Z,102038.61
2019-06-27T15:41:42.724Z,102040.59
2019-06-27T15:44:20.332Z,102038.12
2019-06-27T15:46:49.183Z,102030.33
2019-06-27T15:49:19.798Z,102024.50
2019-06-27T15:51:50.366Z,102033.75
2019-06-27T15:54:20.899Z,102021.34
2019-06-27T15:56:51.558Z,102029.77
2019-06-27T15:59:22.110Z,102023.67
2019-06-27T16:01:52.676Z,102030.67
2019-06-27T16:04:32.634Z,102031.78
2019-06-27T16:06:55.488Z,102024.59
2019-06-27T16:09:26.096Z,102028.51
2019-06-27T16:11:56.672Z,102017.47
2019-06-27T16:14:27.302Z,102015.30
2019-06-27T16:16:57.793Z,102013.50
2019-06-27T16:19:28.401Z,102020.03
2019-06-27T16:21:58.915Z,102016.52
2019-06-27T16:24:29.601Z,102011.69
2019-06-27T16:27:00.223Z,102025.49
2019-06-27T16:29:30.776Z,102013.18
2019-06-27T16:32:01.466Z,102015.83
2019-06-27T16:34:32.079Z,102023.59
2019-06-27T16:37:02.563Z,102017.86
2019-06-27T16:39:33.110Z,102011.83
2019-06-27T16:42:03.712Z,102012.20
2019-06-27T16:44:34.195Z,102015.97
2019-06-27T16:47:04.684Z,102018.31
2019-06-27T16:49:35.259Z,102020.66
2019-06-27T16:52:10.739Z,102028.05
2019-06-27T16:54:41.421Z,102020.39
2019-06-27T16:57:12.047Z,102023.70
2019-06-27T16:59:42.638Z,102024.45
2019-06-27T17:02:13.196Z,102031.69
2019-06-27T17:04:43.754Z,102020.13
2019-06-27T17:07:14.343Z,102032.03
2019-06-27T17:09:44.989Z,102030.09
2019-06-27T17:12:15.510Z,102034.50
2019-06-27T17:14:46.008Z,102037.52
2019-06-27T17:17:16.691Z,102030.55
2019-06-27T17:19:47.306Z,102030.14
2019-06-27T17:22:17.838Z,102025.30
2019-06-27T17:24:48.470Z,102025.53
2019-06-27T17:27:19.083Z,102025.39
2019-06-27T17:29:49.622Z,102028.34
2019-06-27T17:32:20.158Z,102033.55
2019-06-27T17:34:50.728Z,102028.13
2019-06-27T17:37:21.128Z,102024.95
2019-06-27T17:39:51.727Z,102023.74
2019-06-27T17:42:22.230Z,102011.73
2019-06-27T17:44:52.797Z,102023.86
2019-06-27T17:47:23.332Z,102024.92
2019-06-27T17:49:53.830Z,102028.85
2019-06-27T17:52:24.707Z,102024.71
2019-06-27T17:54:55.306Z,102018.10
2019-06-27T17:57:25.827Z,102019.02
2019-06-27T17:59:56.360Z,102022.93
2019-06-27T18:02:26.901Z,102023.48
2019-06-27T18:04:57.554Z,102026.18
2019-06-27T18:07:28.141Z,102023.03
2019-06-27T18:09:58.764Z,102025.63
2019-06-27T18:12:29.182Z,102027.88
2019-06-27T18:14:59.691Z,102031.20
2019-06-27T18:17:33.828Z,102026.83
2019-06-27T18:20:02.542Z,102020.57
2019-06-27T18:22:33.107Z,102022.77
2019-06-27T18:25:03.659Z,102021.59
2019-06-27T18:27:34.081Z,102023.98
2019-06-27T18:30:04.698Z,102023.81
2019-06-27T18:32:35.255Z,102027.61
2019-06-27T18:35:06.656Z,102030.83
2019-06-27T18:37:37.157Z,102027.45
2019-06-27T18:40:08.253Z,102024.91
2019-06-27T18:42:38.723Z,102023.63
2019-06-27T18:45:10.528Z,102021.87
2019-06-27T18:47:41.189Z,102025.60
2019-06-27T18:50:12.044Z,102025.37
2019-06-27T18:52:42.546Z,102027.83
2019-06-27T18:55:13.147Z,102025.16
2019-06-27T18:57:43.705Z,102020.73
2019-06-27T19:00:15.099Z,102019.95
2019-06-27T19:02:45.714Z,102020.48
2019-06-27T19:05:17.187Z,102018.20
2019-06-27T19:07:47.782Z,102017.81
2019-06-27T19:10:18.696Z,102019.58
2019-06-27T19:12:49.330Z,102021.95
2019-06-27T19:15:19.857Z,102020.73
2019-06-27T19:17:50.620Z,102021.64
2019-06-27T19:20:36.336Z,102019.66
2019-06-27T19:23:28.754Z,102017.08
2019-06-27T19:26:00.765Z,102014.97
2019-06-27T19:28:31.344Z,102022.70
2019-06-27T19:31:02.118Z,102025.23
2019-06-27T19:33:32.711Z,102027.47
2019-06-27T19:36:03.603Z,102034.39
2019-06-27T19:38:34.232Z,102040.13
2019-06-27T19:41:05.662Z,102035.94
2019-06-27T19:43:36.257Z,102033.70
2019-06-27T19:46:08.029Z,102040.33
2019-06-27T19:48:38.643Z,102043.45
2019-06-27T19:51:09.357Z,102040.70
2019-06-27T19:53:40.135Z,102050.16
2019-06-27T19:56:10.784Z,102051.94
2019-06-27T19:58:41.522Z,102053.17
2019-06-27T20:01:12.230Z,102057.45
2019-06-27T20:03:42.844Z,102058.88
2019-06-27T20:06:13.427Z,102058.27
2019-06-27T20:08:43.956Z,102055.50
2019-06-27T20:11:14.493Z,102061.03
2019-06-27T20:13:45.094Z,102065.25
2019-06-27T20:16:15.755Z,102070.15
2019-06-27T20:18:46.272Z,102064.63
2019-06-27T20:21:16.838Z,102067.28
2019-06-27T20:23:47.444Z,102065.66
2019-06-27T20:26:18.032Z,102073.55
2019-06-27T20:28:48.736Z,102077.11
2019-06-27T20:31:20.863Z,102070.02
2019-06-27T20:33:51.420Z,102078.53
2019-06-27T20:36:22.004Z,102080.84
2019-06-27T20:38:52.588Z,102072.25
2019-06-27T20:41:23.131Z,102073.86
2019-06-27T20:43:53.707Z,102068.42
2019-06-27T20:46:24.273Z,102067.43
2019-06-27T20:48:54.858Z,102082.56
2019-06-27T20:51:25.397Z,102072.02
2019-06-27T20:53:55.933Z,102071.04
2019-06-27T20:56:26.468Z,102070.44
2019-06-27T20:58:57.033Z,102073.81
2019-06-27T21:01:31.176Z,102062.81
2019-06-27T21:03:59.950Z,102058.22
2019-06-27T21:06:30.444Z,102066.59
2019-06-27T21:09:00.959Z,102060.78
2019-06-27T21:11:31.591Z,102060.27
2019-06-27T21:14:02.161Z,102061.25
2019-06-27T21:16:32.677Z,102068.88
2019-06-27T21:19:03.197Z,102066.34
2019-06-27T21:21:33.794Z,102060.70
2019-06-27T21:24:04.377Z,102052.05
2019-06-27T21:26:34.916Z,102059.45
2019-06-27T21:29:05.455Z,102059.48
2019-06-27T21:31:36.068Z,102053.49
2019-06-27T21:34:06.593Z,102063.61
2019-06-27T21:36:37.296Z,102062.91
2019-06-27T21:39:08.250Z,102067.89
2019-06-27T21:41:38.985Z,102066.55
2019-06-27T21:44:09.557Z,102068.13
2019-06-27T21:46:40.093Z,102064.56
2019-06-27T21:49:11.573Z,102065.58
2019-06-27T21:51:42.205Z,102060.91
2019-06-27T21:54:12.804Z,102062.25
2019-06-27T21:56:43.299Z,102059.57
2019-06-27T21:59:13.799Z,102056.16
2019-06-27T22:01:44.423Z,102054.61
2019-06-27T22:04:15.000Z,102059.12
2019-06-27T22:06:45.525Z,102054.61
2019-06-27T22:09:24.520Z,102057.95
2019-06-27T22:11:48.346Z,102061.83
2019-06-27T22:14:18.886Z,102062.56
2019-06-27T22:16:49.413Z,102055.41
2019-06-27T22:19:19.931Z,102054.49
2019-06-27T22:21:50.452Z,102052.27
2019-06-27T22:24:21.003Z,102040.53
2019-06-27T22:26:51.514Z,102039.83
2019-06-27T22:29:21.973Z,102045.13
2019-06-27T22:31:52.550Z,102045.12
2019-06-27T22:34:23.021Z,102043.02
2019-06-27T22:36:56.021Z,102038.98
2019-06-27T22:39:43.844Z,102038.06
2019-06-27T22:42:32.069Z,102037.42
2019-06-27T22:45:20.708Z,102036.63
2019-06-27T22:48:08.925Z,102041.89
2019-06-27T22:51:11.473Z,102042.95
2019-06-27T22:53:51.738Z,102039.41
2019-06-27T22:56:22.324Z,102035.47
2019-06-27T22:58:52.925Z,102032.12
2019-06-27T23:01:23.476Z,102028.27
2019-06-27T23:03:54.088Z,102033.00
2019-06-27T23:06:24.827Z,102034.86
2019-06-27T23:08:55.694Z,102036.68
2019-06-27T23:11:26.513Z,102037.52
2019-06-27T23:13:59.471Z,102036.81
2019-06-27T23:16:29.968Z,102045.66
2019-06-27T23:19:00.549Z,102048.45
2019-06-27T23:21:31.060Z,102035.80
2019-06-27T23:24:01.788Z,102035.14
2019-06-27T23:26:32.437Z,102036.98
2019-06-27T23:29:03.067Z,102034.63
2019-06-27T23:31:33.596Z,102031.73
2019-06-27T23:34:03.951Z,102035.84
2019-06-27T23:36:34.411Z,102040.67
2019-06-27T23:39:05.002Z,102037.85
2019-06-27T23:41:35.652Z,102047.17
2019-06-27T23:44:06.155Z,102041.02
2019-06-27T23:46:43.582Z,102038.36
2019-06-27T23:49:14.111Z,102043.79
2019-06-27T23:51:44.845Z,102045.15
2019-06-27T23:54:15.334Z,102047.11
2019-06-27T23:56:45.817Z,102036.25
2019-06-27T23:59:16.404Z,102037.80
